Time;durP1;ratioP1;P1;durP2;ratioP2;P2;SDS_P1;SDS_P2;PMS_P1;PMS_P2;Temp;Humidity;BMP_temperature;BMP_pressure;BME280_temperature;BME280_humidity;BME280_pressure;Samples;Min_cycle;Max_cycle;Signal;HPM_P1;HPM_P2
2021/01/25 00:00:08;;;;;;;;;;;;;;;20.08;39.70;99616.28;5076011;28;843;-56
2021/01/25 00:02:37;;;;;;;;;;;;;;;20.12;39.57;99612.53;5075389;28;641;-63
2021/01/25 00:05:06;;;;;;;;;;;;;;;20.14;39.43;99610.25;5058197;28;823;-59
2021/01/25 00:07:32;;;;;;;;;;;;;;;20.22;39.48;99622.44;5076292;28;1064;-58
2021/01/25 00:09:59;;;;;;;;;;;;;;;20.28;39.27;99615.59;5079369;28;1910;-60
2021/01/25 00:12:24;;;;;;;;;;;;;;;20.19;39.47;99612.06;5079255;28;1175;-59
2021/01/25 00:14:50;;;;;;;;;;;;;;;20.30;39.19;99620.78;5059823;28;959;-58
2021/01/25 00:17:15;;;;;;;;;;;;;;;20.20;39.60;99616.41;5059201;28;747;-59
2021/01/25 00:19:41;;;;;;;;;;;;;;;20.25;39.35;99598.91;5059628;28;776;-59
2021/01/25 00:22:06;;;;;;;;;;;;;;;20.30;39.52;99593.19;5059677;28;828;-57
2021/01/25 00:24:31;;;;;;;;;;;;;;;20.35;39.41;99588.28;5058900;28;761;-57
2021/01/25 00:26:57;;;;;;;;;;;;;;;20.40;39.32;99583.75;5059863;28;748;-57
2021/01/25 00:29:22;;;;;;;;;;;;;;;20.34;39.24;99586.69;5059128;28;1005;-58
2021/01/25 00:31:48;;;;;;;;;;;;;;;20.46;39.21;99574.16;5058947;28;936;-56
2021/01/25 00:34:13;;;;;;;;;;;;;;;20.48;39.14;99585.69;5059321;28;740;-51
2021/01/25 00:36:39;;;;;;;;;;;;;;;20.37;39.21;99579.72;5041208;28;799;-61
2021/01/25 00:39:04;;;;;;;;;;;;;;;20.46;39.02;99588.78;5058949;28;760;-55
2021/01/25 00:41:29;;;;;;;;;;;;;;;20.47;39.16;99578.56;5059636;28;812;-58
2021/01/25 00:43:55;;;;;;;;;;;;;;;20.45;39.28;99580.81;5041176;28;1198;-58
2021/01/25 00:46:20;;;;;;;;;;;;;;;20.43;39.08;99572.88;5058810;28;824;-53
2021/01/25 00:48:46;;;;;;;;;;;;;;;20.18;39.68;99572.59;5059172;28;831;-51
2021/01/25 00:51:11;;;;;;;;;;;;;;;20.37;39.22;99567.84;5058857;28;1994;-53
2021/01/25 00:53:37;;;;;;;;;;;;;;;20.47;39.15;99553.69;5058675;28;792;-57
2021/01/25 00:56:03;;;;;;;;;;;;;;;20.34;39.26;99549.97;5041339;28;1328;-58
2021/01/25 00:58:28;;;;;;;;;;;;;;;20.21;39.52;99551.81;5041372;28;1300;-57
2021/01/25 01:00:54;;;;;;;;;;;;;;;20.24;39.67;99547.56;5040692;28;1110;-58
2021/01/25 01:03:19;;;;;;;;;;;;;;;20.35;39.53;99537.81;5041082;28;1104;-57
2021/01/25 01:05:45;;;;;;;;;;;;;;;20.43;39.31;99525.94;5058765;28;748;-57
2021/01/25 01:08:10;;;;;;;;;;;;;;;20.47;39.32;99529.66;5064476;28;1135;-57
2021/01/25 01:10:36;;;;;;;;;;;;;;;20.40;39.50;99523.00;5078548;28;1901;-58
2021/01/25 01:13:01;;;;;;;;;;;;;;;20.46;39.41;99522.50;5072761;28;1032;-57
2021/01/25 01:15:27;;;;;;;;;;;;;;;20.47;39.26;99512.28;5058622;28;792;-58
2021/01/25 01:17:52;;;;;;;;;;;;;;;20.48;39.27;99519.41;5058524;28;796;-58
2021/01/25 01:20:17;;;;;;;;;;;;;;;20.54;39.21;99509.81;5058031;28;768;-58
2021/01/25 01:22:43;;;;;;;;;;;;;;;20.50;38.99;99506.88;5058275;28;760;-58
2021/01/25 01:25:09;;;;;;;;;;;;;;;20.66;38.80;99498.06;5058167;28;737;-58
2021/01/25 01:27:34;;;;;;;;;;;;;;;20.56;38.96;99490.94;5059142;28;966;-57
2021/01/25 01:29:59;;;;;;;;;;;;;;;20.59;39.10;99497.75;5078589;28;1977;-57
2021/01/25 01:32:25;;;;;;;;;;;;;;;20.62;39.17;99492.41;5077696;28;744;-57
2021/01/25 01:34:50;;;;;;;;;;;;;;;20.67;38.78;99488.63;5078338;28;756;-58
2021/01/25 01:37:16;;;;;;;;;;;;;;;20.66;38.75;99476.78;5078319;28;807;-58
2021/01/25 01:39:41;;;;;;;;;;;;;;;20.64;38.83;99468.00;5077619;28;744;-56
2021/01/25 01:42:13;;;;;;;;;;;;;;;20.67;38.75;99477.59;5078090;28;744;-56
2021/01/25 01:44:38;;;;;;;;;;;;;;;20.63;39.02;99473.88;5059643;28;954;-58
2021/01/25 01:47:04;;;;;;;;;;;;;;;20.30;39.64;99452.41;5057408;28;753;-58
2021/01/25 01:49:29;;;;;;;;;;;;;;;20.38;39.45;99445.22;5058256;28;1906;-58
2021/01/25 01:51:54;;;;;;;;;;;;;;;20.42;39.62;99454.47;5058304;28;899;-58
2021/01/25 01:54:20;;;;;;;;;;;;;;;20.28;39.90;99444.44;5057268;28;816;-57
2021/01/25 01:56:45;;;;;;;;;;;;;;;20.25;39.65;99447.88;5040272;28;867;-58
2021/01/25 01:59:11;;;;;;;;;;;;;;;20.27;39.64;99450.31;5039635;28;1014;-57
2021/01/25 02:01:36;;;;;;;;;;;;;;;20.25;39.92;99449.84;5057271;28;819;-58
2021/01/25 02:04:03;;;;;;;;;;;;;;;20.14;39.95;99438.34;5040175;28;948;-58
2021/01/25 02:06:28;;;;;;;;;;;;;;;20.05;40.09;99449.41;5057633;28;784;-57
2021/01/25 02:08:54;;;;;;;;;;;;;;;20.18;40.00;99433.78;5069325;28;1103;-58
2021/01/25 02:11:20;;;;;;;;;;;;;;;20.03;40.11;99424.09;5059562;28;1913;-55
2021/01/25 02:13:46;;;;;;;;;;;;;;;20.02;40.46;99419.72;5065632;28;1005;-57
2021/01/25 02:16:12;;;;;;;;;;;;;;;20.04;40.11;99414.69;5057173;28;807;-58
2021/01/25 02:18:37;;;;;;;;;;;;;;;20.13;40.08;99421.00;5057553;28;776;-58
2021/01/25 02:21:03;;;;;;;;;;;;;;;19.92;40.41;99420.06;5057274;28;808;-58
2021/01/25 02:23:49;;;;;;;;;;;;;;;20.05;40.05;99408.03;5039252;28;792;-57
2021/01/25 02:26:20;;;;;;;;;;;;;;;20.09;40.07;99397.13;5056931;28;1373;-58
2021/01/25 02:28:46;;;;;;;;;;;;;;;20.08;40.25;99404.59;5038982;28;951;-59
2021/01/25 02:31:11;;;;;;;;;;;;;;;19.85;40.70;99408.75;5038400;28;1981;-57
2021/01/25 02:33:38;;;;;;;;;;;;;;;19.87;40.52;99407.28;5057105;28;816;-57
2021/01/25 02:36:04;;;;;;;;;;;;;;;20.05;40.23;99394.22;5039376;28;903;-57
2021/01/25 02:38:30;;;;;;;;;;;;;;;20.02;40.31;99396.81;5056734;28;820;-57
2021/01/25 02:40:55;;;;;;;;;;;;;;;19.80;40.61;99382.94;5056970;28;772;-58
2021/01/25 02:43:21;;;;;;;;;;;;;;;19.93;40.28;99394.91;5063680;28;1021;-57
2021/01/25 02:45:46;;;;;;;;;;;;;;;20.17;39.84;99388.84;5076522;28;835;-57
2021/01/25 02:48:11;;;;;;;;;;;;;;;20.11;39.93;99390.13;5058978;28;764;-59
2021/01/25 02:50:37;;;;;;;;;;;;;;;19.86;40.67;99378.06;5076634;28;1913;-59
2021/01/25 02:53:02;;;;;;;;;;;;;;;20.01;40.39;99371.19;5076390;28;820;-57
2021/01/25 02:55:28;;;;;;;;;;;;;;;20.07;40.09;99367.09;5076625;28;858;-58
2021/01/25 02:57:54;;;;;;;;;;;;;;;20.22;39.87;99356.66;5075578;28;938;-59
2021/01/25 03:00:20;;;;;;;;;;;;;;;20.21;39.53;99355.84;5076592;28;764;-57
2021/01/25 03:02:46;;;;;;;;;;;;;;;20.30;39.52;99348.31;5058281;28;801;-59
2021/01/25 03:05:11;;;;;;;;;;;;;;;20.18;39.90;99357.31;5076788;28;744;-57
2021/01/25 03:07:37;;;;;;;;;;;;;;;20.32;39.45;99359.03;5058018;28;1119;-56
2021/01/25 03:10:03;;;;;;;;;;;;;;;20.39;39.30;99340.00;5058003;28;1989;-58
2021/01/25 03:12:28;;;;;;;;;;;;;;;20.42;39.58;99349.56;5075154;28;1004;-57
2021/01/25 03:14:54;;;;;;;;;;;;;;;20.37;39.36;99346.97;5056017;28;834;-58
2021/01/25 03:17:19;;;;;;;;;;;;;;;20.33;39.61;99338.56;5056184;28;759;-55
2021/01/25 03:19:45;;;;;;;;;;;;;;;20.31;39.46;99332.56;5056436;28;820;-56
2021/01/25 03:22:10;;;;;;;;;;;;;;;20.33;39.47;99328.34;5038389;28;634;-55
2021/01/25 03:24:36;;;;;;;;;;;;;;;20.25;39.61;99325.63;5056050;28;843;-55
2021/01/25 03:27:01;;;;;;;;;;;;;;;20.03;40.11;99313.72;5056306;28;796;-55
2021/01/25 03:29:26;;;;;;;;;;;;;;;20.26;39.98;99313.44;5055506;28;959;-56
2021/01/25 03:31:52;;;;;;;;;;;;;;;20.35;39.61;99305.91;5038118;28;1981;-55
2021/01/25 03:34:17;;;;;;;;;;;;;;;20.33;39.46;99308.22;5056410;28;844;-55
2021/01/25 03:36:43;;;;;;;;;;;;;;;20.34;39.54;99309.81;5056060;28;804;-58
2021/01/25 03:39:08;;;;;;;;;;;;;;;20.26;39.63;99291.34;5056096;28;752;-58
2021/01/25 03:41:34;;;;;;;;;;;;;;;20.46;39.35;99304.38;5056013;28;741;-56
2021/01/25 03:43:59;;;;;;;;;;;;;;;20.37;39.48;99292.59;5055022;28;955;-57
2021/01/25 03:46:25;;;;;;;;;;;;;;;20.45;39.18;99286.19;5055932;28;744;-58
2021/01/25 03:48:50;;;;;;;;;;;;;;;20.43;39.31;99284.94;5056080;28;824;-56
2021/01/25 03:51:16;;;;;;;;;;;;;;;20.37;39.61;99287.06;5055799;28;1917;-57
2021/01/25 03:53:41;;;;;;;;;;;;;;;20.40;39.30;99280.88;5055864;28;819;-57
2021/01/25 03:56:07;;;;;;;;;;;;;;;20.48;39.27;99280.00;5056045;28;831;-55
2021/01/25 03:58:32;;;;;;;;;;;;;;;20.56;39.09;99272.78;5055055;28;1014;-58
2021/01/25 04:00:58;;;;;;;;;;;;;;;20.57;39.13;99251.53;5055915;28;824;-59
2021/01/25 04:03:23;;;;;;;;;;;;;;;20.57;39.22;99257.84;5055880;28;887;-59
2021/01/25 04:05:48;;;;;;;;;;;;;;;20.65;38.94;99253.38;5055430;28;744;-59
2021/01/25 04:08:14;;;;;;;;;;;;;;;20.57;39.22;99262.56;5062380;28;1139;-58
2021/01/25 04:10:39;;;;;;;;;;;;;;;20.71;39.00;99270.59;5075843;28;1913;-52
2021/01/25 04:13:05;;;;;;;;;;;;;;;20.61;39.23;99272.59;5068784;28;1187;-55
2021/01/25 04:15:30;;;;;;;;;;;;;;;20.61;39.21;99289.16;5055796;28;807;-55
2021/01/25 04:17:56;;;;;;;;;;;;;;;20.60;39.35;99278.47;5055830;28;784;-55
2021/01/25 04:20:21;;;;;;;;;;;;;;;20.66;39.00;99297.25;5055280;28;749;-57
2021/01/25 04:22:47;;;;;;;;;;;;;;;20.63;39.30;99288.81;5055559;28;784;-57
2021/01/25 04:25:12;;;;;;;;;;;;;;;20.61;39.33;99302.19;5055584;28;799;-56
2021/01/25 04:27:38;;;;;;;;;;;;;;;20.68;39.18;99296.94;5055137;28;966;-56
2021/01/25 04:30:09;;;;;;;;;;;;;;;20.35;39.58;99290.16;5055299;28;1971;-49
2021/01/25 04:32:35;;;;;;;;;;;;;;;20.39;39.54;99298.56;5055453;28;864;-48
2021/01/25 04:35:05;;;;;;;;;;;;;;;20.44;39.49;99309.44;5021189;28;852;-53
2021/01/25 04:37:30;;;;;;;;;;;;;;;20.23;40.00;99297.53;5056351;28;1492;-50
2021/01/25 04:39:56;;;;;;;;;;;;;;;20.42;39.69;99306.19;5068243;28;823;-54
2021/01/25 04:42:21;;;;;;;;;;;;;;;20.45;39.84;99299.97;5075531;28;808;-57
2021/01/25 04:44:46;;;;;;;;;;;;;;;20.61;39.32;99311.25;5054978;28;1006;-54
2021/01/25 04:47:12;;;;;;;;;;;;;;;20.61;39.33;99302.19;5055315;28;768;-52
2021/01/25 04:49:37;;;;;;;;;;;;;;;20.68;39.00;99313.50;5055776;28;1910;-50
2021/01/25 04:52:03;;;;;;;;;;;;;;;20.55;39.46;99320.88;5036797;28;789;-53
2021/01/25 04:54:28;;;;;;;;;;;;;;;20.56;39.42;99316.97;5057142;28;1077;-48
2021/01/25 04:56:54;;;;;;;;;;;;;;;20.55;39.57;99318.09;5039576;28;951;-52
2021/01/25 04:59:19;;;;;;;;;;;;;;;20.24;39.93;99312.97;5057862;28;989;-50
2021/01/25 05:01:45;;;;;;;;;;;;;;;20.26;39.94;99307.91;5041260;28;765;-53
2021/01/25 05:04:10;;;;;;;;;;;;;;;20.32;39.90;99309.34;5058857;28;796;-57
2021/01/25 05:06:36;;;;;;;;;;;;;;;20.44;39.52;99298.38;5058307;28;855;-53
2021/01/25 05:09:02;;;;;;;;;;;;;;;20.38;39.97;99293.41;5054202;28;1163;-54
2021/01/25 05:11:28;;;;;;;;;;;;;;;20.23;40.08;99292.03;5078855;28;1913;-54
2021/01/25 05:14:03;;;;;;;;;;;;;;;20.31;40.01;99308.56;5065325;28;1084;-50
2021/01/25 05:16:29;;;;;;;;;;;;;;;20.44;39.71;99314.13;5058707;28;775;-58
2021/01/25 05:18:55;;;;;;;;;;;;;;;20.47;39.84;99313.47;5058700;28;858;-51
2021/01/25 05:21:29;;;;;;;;;;;;;;;20.50;39.54;99313.59;5058447;28;827;-51
2021/01/25 05:24:01;;;;;;;;;;;;;;;20.58;39.36;99313.88;5040910;28;891;-59
2021/01/25 05:26:26;;;;;;;;;;;;;;;20.47;39.62;99303.22;5058468;28;800;-51
2021/01/25 05:28:52;;;;;;;;;;;;;;;20.59;39.31;99305.25;5057473;28;1102;-51
2021/01/25 05:31:21;;;;;;;;;;;;;;;20.54;39.47;99301.88;5058829;28;1914;-52
2021/01/25 05:33:46;;;;;;;;;;;;;;;20.49;39.76;99316.69;5058528;28;840;-53
2021/01/25 05:36:15;;;;;;;;;;;;;;;20.49;39.65;99300.13;5057520;28;784;-51
2021/01/25 05:38:40;;;;;;;;;;;;;;;20.24;40.20;99305.47;5041088;28;828;-53
2021/01/25 05:41:05;;;;;;;;;;;;;;;20.08;40.93;99297.00;5040199;28;780;-49
2021/01/25 05:43:32;;;;;;;;;;;;;;;20.26;40.25;99299.63;5064689;28;1321;-53
2021/01/25 05:46:04;;;;;;;;;;;;;;;20.37;39.97;99292.59;5075822;28;1188;-54
2021/01/25 05:48:30;;;;;;;;;;;;;;;20.40;40.13;99294.69;5067806;28;1326;-56
2021/01/25 05:50:55;;;;;;;;;;;;;;;20.35;40.02;99300.38;5067383;28;1922;-57
2021/01/25 05:53:21;;;;;;;;;;;;;;;20.51;39.65;99289.56;5071867;28;1378;-50
2021/01/25 05:55:46;;;;;;;;;;;;;;;20.54;39.89;99290.84;5077781;28;824;-55
2021/01/25 05:58:12;;;;;;;;;;;;;;;20.48;39.76;99293.81;5071223;28;1014;-53
2021/01/25 06:00:38;;;;;;;;;;;;;;;20.08;40.58;99285.16;5057829;28;788;-53
2021/01/25 06:03:05;;;;;;;;;;;;;;;19.93;40.99;99292.03;5057525;28;936;-57
2021/01/25 06:05:31;;;;;;;;;;;;;;;20.16;40.72;99289.78;5056196;28;832;-48
2021/01/25 06:08:15;;;;;;;;;;;;;;;20.22;40.42;99287.66;5061657;28;1072;-51
2021/01/25 06:10:59;;;;;;;;;;;;;;;20.06;40.68;99282.69;5077377;28;1963;-49
2021/01/25 06:13:25;;;;;;;;;;;;;;;19.86;41.14;99286.22;5075838;28;1048;-58
2021/01/25 06:15:51;;;;;;;;;;;;;;;20.07;40.99;99280.75;5059627;28;812;-51
2021/01/25 06:18:16;;;;;;;;;;;;;;;19.89;41.04;99271.78;5042211;28;915;-51
2021/01/25 06:20:42;;;;;;;;;;;;;;;19.92;41.16;99271.09;5059239;28;820;-48
2021/01/25 06:23:07;;;;;;;;;;;;;;;20.04;40.70;99268.44;5042754;28;1039;-54
2021/01/25 06:25:33;;;;;;;;;;;;;;;20.01;40.73;99263.59;5059412;28;1049;-57
2021/01/25 06:27:58;;;;;;;;;;;;;;;19.83;41.31;99263.69;5071664;28;970;-55
2021/01/25 06:30:24;;;;;;;;;;;;;;;19.90;41.01;99268.69;5039066;28;1967;-52
2021/01/25 06:32:51;;;;;;;;;;;;;;;20.10;40.63;99267.09;5057000;28;740;-50
2021/01/25 06:35:16;;;;;;;;;;;;;;;20.12;40.52;99259.31;5056528;28;836;-54
2021/01/25 06:37:42;;;;;;;;;;;;;;;20.18;40.41;99263.47;5056672;28;868;-46
2021/01/25 06:40:11;;;;;;;;;;;;;;;20.20;40.59;99254.06;5056778;28;756;-51
2021/01/25 06:42:39;;;;;;;;;;;;;;;20.25;40.20;99251.91;5056136;28;994;-50
2021/01/25 06:45:05;;;;;;;;;;;;;;;20.28;40.41;99251.22;5056565;28;764;-49
2021/01/25 06:47:31;;;;;;;;;;;;;;;20.21;40.53;99250.16;5056877;28;772;-58
2021/01/25 06:49:59;;;;;;;;;;;;;;;20.18;40.46;99252.44;5038658;28;1905;-51
2021/01/25 06:52:29;;;;;;;;;;;;;;;20.33;40.29;99239.19;5056611;28;827;-59
2021/01/25 06:54:58;;;;;;;;;;;;;;;20.37;40.11;99237.38;5039269;28;857;-58
2021/01/25 06:57:25;;;;;;;;;;;;;;;20.33;40.14;99233.69;5037865;28;1307;-49
2021/01/25 06:59:51;;;;;;;;;;;;;;;20.40;40.28;99231.19;5056590;28;947;-48
2021/01/25 07:02:17;;;;;;;;;;;;;;;20.38;40.06;99233.47;5056620;28;772;-52
2021/01/25 07:04:45;;;;;;;;;;;;;;;20.46;40.02;99246.38;5056169;28;776;-49
2021/01/25 07:07:27;;;;;;;;;;;;;;;20.41;40.26;99235.56;5056545;28;720;-51
2021/01/25 07:09:53;;;;;;;;;;;;;;;20.40;40.02;99233.94;5076785;28;1975;-56
2021/01/25 07:12:19;;;;;;;;;;;;;;;20.37;40.04;99242.91;5076055;28;1125;-56
2021/01/25 07:14:45;;;;;;;;;;;;;;;20.44;39.94;99226.59;5056422;28;978;-53
2021/01/25 07:17:10;;;;;;;;;;;;;;;20.53;39.74;99229.28;5056053;28;872;-49
2021/01/25 07:19:35;;;;;;;;;;;;;;;20.49;40.04;99234.66;5055759;28;871;-52
2021/01/25 07:22:01;;;;;;;;;;;;;;;20.41;40.30;99224.53;5038576;28;817;-51
2021/01/25 07:24:27;;;;;;;;;;;;;;;20.52;39.97;99222.97;5038653;28;867;-54
2021/01/25 07:26:56;;;;;;;;;;;;;;;20.45;40.03;99214.41;5055701;28;788;-50
2021/01/25 07:29:21;;;;;;;;;;;;;;;20.29;40.35;99210.66;5038121;28;979;-48
2021/01/25 07:31:47;;;;;;;;;;;;;;;20.12;40.99;99198.59;5055847;28;1909;-52
2021/01/25 07:34:12;;;;;;;;;;;;;;;20.18;40.50;99205.53;5055718;28;753;-50
2021/01/25 07:36:38;;;;;;;;;;;;;;;20.24;40.41;99199.81;5055805;28;779;-55
2021/01/25 07:39:06;;;;;;;;;;;;;;;20.35;40.47;99195.50;5056445;28;856;-49
2021/01/25 07:41:32;;;;;;;;;;;;;;;20.27;40.58;99193.59;5055062;28;807;-54
2021/01/25 07:43:59;;;;;;;;;;;;;;;20.38;40.16;99192.06;5038687;28;1011;-52
2021/01/25 07:46:24;;;;;;;;;;;;;;;20.46;40.14;99193.94;5065985;28;913;-58
2021/01/25 07:48:50;;;;;;;;;;;;;;;20.52;39.92;99184.31;5073990;28;891;-53
2021/01/25 07:51:19;;;;;;;;;;;;;;;20.48;39.93;99172.31;5074495;28;1914;-56
2021/01/25 07:53:45;;;;;;;;;;;;;;;20.53;39.99;99157.50;5076071;28;811;-54
2021/01/25 07:56:13;;;;;;;;;;;;;;;20.41;40.06;99155.50;5075761;28;847;-50
2021/01/25 07:58:38;;;;;;;;;;;;;;;20.48;39.94;99141.13;5065297;28;1010;-49
2021/01/25 08:01:08;;;;;;;;;;;;;;;20.50;40.19;99136.88;5038434;28;764;-52
2021/01/25 08:03:34;;;;;;;;;;;;;;;20.37;40.31;99154.56;5055271;28;879;-58
2021/01/25 08:06:00;;;;;;;;;;;;;;;20.29;40.59;99144.41;5057678;28;983;-51
2021/01/25 08:08:25;;;;;;;;;;;;;;;20.37;40.43;99135.25;5058088;28;1072;-59
2021/01/25 08:10:51;;;;;;;;;;;;;;;20.42;40.12;99136.97;5075280;28;1997;-58
2021/01/25 08:13:16;;;;;;;;;;;;;;;20.43;40.23;99125.59;5067905;28;1421;-60
2021/01/25 08:15:52;;;;;;;;;;;;;;;20.47;40.34;99131.25;5055705;28;958;-56
2021/01/25 08:18:18;;;;;;;;;;;;;;;20.38;40.45;99134.06;5038152;28;842;-57
2021/01/25 08:20:44;;;;;;;;;;;;;;;20.54;39.97;99130.69;5059243;28;1156;-51
2021/01/25 08:23:15;;;;;;;;;;;;;;;20.58;39.88;99137.13;5075674;28;816;-59
2021/01/25 08:25:40;;;;;;;;;;;;;;;20.58;39.95;99140.72;5056989;28;869;-52
2021/01/25 08:28:15;;;;;;;;;;;;;;;20.64;39.78;99135.78;5069457;28;966;-52
2021/01/25 08:30:44;;;;;;;;;;;;;;;20.59;39.86;99141.53;5059279;28;1917;-49
2021/01/25 08:33:10;;;;;;;;;;;;;;;20.54;40.16;99148.06;5059018;28;760;-53
2021/01/25 08:35:40;;;;;;;;;;;;;;;20.61;39.82;99142.78;5059504;28;835;-54
2021/01/25 08:38:08;;;;;;;;;;;;;;;20.69;39.65;99141.09;5041672;28;777;-55
2021/01/25 08:40:35;;;;;;;;;;;;;;;20.47;40.03;99148.63;5059083;28;752;-55
2021/01/25 08:43:00;;;;;;;;;;;;;;;20.63;39.86;99134.16;5058813;28;970;-56
2021/01/25 08:45:27;;;;;;;;;;;;;;;20.69;39.64;99132.81;5059040;28;804;-55
2021/01/25 08:48:00;;;;;;;;;;;;;;;20.65;39.76;99137.38;5059185;28;812;-56
2021/01/25 08:50:26;;;;;;;;;;;;;;;20.73;39.62;99138.47;5041349;28;1910;-59
2021/01/25 08:53:18;;;;;;;;;;;;;;;20.62;39.98;99135.31;5058827;28;808;-53
2021/01/25 08:55:44;;;;;;;;;;;;;;;20.67;39.66;99137.88;5057476;28;1255;-48
2021/01/25 08:58:19;;;;;;;;;;;;;;;20.65;39.76;99138.22;5058728;28;966;-58
2021/01/25 09:00:47;;;;;;;;;;;;;;;20.72;39.69;99137.69;5058883;28;761;-50
2021/01/25 09:03:13;;;;;;;;;;;;;;;20.68;39.62;99126.50;5058255;28;685;-53
2021/01/25 09:05:38;;;;;;;;;;;;;;;20.51;40.21;99124.69;5040983;28;737;-50
2021/01/25 09:08:04;;;;;;;;;;;;;;;20.57;40.13;99121.72;5063522;28;1131;-50
2021/01/25 09:10:29;;;;;;;;;;;;;;;20.59;39.90;99113.91;5078416;28;1983;-51
2021/01/25 09:12:55;;;;;;;;;;;;;;;20.60;40.16;99119.09;5073527;28;1048;-55
2021/01/25 09:15:20;;;;;;;;;;;;;;;20.66;39.77;99116.91;5058683;28;752;-51
2021/01/25 09:17:46;;;;;;;;;;;;;;;20.71;39.85;99111.22;5058326;28;933;-49
2021/01/25 09:20:12;;;;;;;;;;;;;;;20.72;39.57;99099.00;5058312;28;776;-54
2021/01/25 09:22:37;;;;;;;;;;;;;;;20.72;39.88;99096.25;5058508;28;844;-51
2021/01/25 09:25:03;;;;;;;;;;;;;;;20.67;39.79;99093.69;5058193;28;749;-49
2021/01/25 09:27:29;;;;;;;;;;;;;;;20.68;39.84;99087.84;5058530;28;963;-51
2021/01/25 09:29:54;;;;;;;;;;;;;;;20.71;39.61;99085.56;5058376;28;1914;-50
2021/01/25 09:32:20;;;;;;;;;;;;;;;20.72;39.71;99079.69;5057919;28;748;-50
2021/01/25 09:34:45;;;;;;;;;;;;;;;20.73;39.61;99078.50;5057683;28;831;-50
2021/01/25 09:37:12;;;;;;;;;;;;;;;20.78;39.54;99078.28;5057871;28;862;-55
2021/01/25 09:39:38;;;;;;;;;;;;;;;20.73;39.54;99073.00;5057641;28;820;-58
2021/01/25 09:42:04;;;;;;;;;;;;;;;20.78;39.52;99070.00;5057960;28;772;-53
2021/01/25 09:44:29;;;;;;;;;;;;;;;20.78;39.57;99070.00;5058132;28;951;-48
2021/01/25 09:46:56;;;;;;;;;;;;;;;20.78;39.54;99069.22;5057440;28;780;-55
2021/01/25 09:49:22;;;;;;;;;;;;;;;20.79;39.52;99071.63;5058007;28;911;-56
2021/01/25 09:51:47;;;;;;;;;;;;;;;20.66;39.70;99079.06;5040302;28;1991;-54
2021/01/25 09:54:13;;;;;;;;;;;;;;;20.64;39.94;99075.03;5057472;28;847;-53
2021/01/25 09:56:38;;;;;;;;;;;;;;;20.49;40.17;99082.81;5057933;28;859;-56
2021/01/25 09:59:04;;;;;;;;;;;;;;;20.26;40.66;99087.94;5057464;28;975;-55
2021/01/25 10:01:30;;;;;;;;;;;;;;;20.33;40.50;99079.91;5057343;28;832;-55
2021/01/25 10:03:56;;;;;;;;;;;;;;;20.45;40.30;99075.56;5057786;28;828;-55
2021/01/25 10:06:21;;;;;;;;;;;;;;;20.41;40.46;99058.88;5057804;28;815;-54
2021/01/25 10:08:47;;;;;;;;;;;;;;;20.28;40.58;99044.22;5068110;28;1083;-54
2021/01/25 10:11:13;;;;;;;;;;;;;;;20.37;40.46;99044.16;5076679;28;1905;-54
2021/01/25 10:13:38;;;;;;;;;;;;;;;20.46;40.39;99050.38;5066605;28;1184;-54
2021/01/25 10:16:04;;;;;;;;;;;;;;;20.62;39.87;99038.66;5056262;28;871;-49
2021/01/25 10:18:29;;;;;;;;;;;;;;;20.65;39.78;99030.50;5057613;28;808;-55
2021/01/25 10:20:55;;;;;;;;;;;;;;;20.63;39.86;99026.47;5057535;28;804;-53
2021/01/25 10:23:20;;;;;;;;;;;;;;;20.65;39.74;99021.38;5056430;28;792;-51
2021/01/25 10:25:46;;;;;;;;;;;;;;;20.71;39.70;99019.28;5057439;28;887;-51
2021/01/25 10:28:11;;;;;;;;;;;;;;;20.68;39.93;99007.75;5056855;28;1006;-50
2021/01/25 10:30:37;;;;;;;;;;;;;;;20.73;39.56;99003.94;5056897;28;1909;-54
2021/01/25 10:33:02;;;;;;;;;;;;;;;20.84;39.35;98996.81;5057128;28;872;-47
2021/01/25 10:35:28;;;;;;;;;;;;;;;20.78;39.51;98989.91;5057066;28;808;-56
2021/01/25 10:37:53;;;;;;;;;;;;;;;20.65;39.79;98985.50;5056637;28;831;-55
2021/01/25 10:40:19;;;;;;;;;;;;;;;20.64;39.85;98981.13;5057149;28;744;-55
2021/01/25 10:42:44;;;;;;;;;;;;;;;20.78;39.76;98981.63;5058763;28;966;-59
2021/01/25 10:45:10;;;;;;;;;;;;;;;20.81;39.64;98964.34;5076661;28;800;-52
2021/01/25 10:47:36;;;;;;;;;;;;;;;20.75;39.60;98971.28;5076800;28;772;-55
2021/01/25 10:50:01;;;;;;;;;;;;;;;20.83;39.38;98973.09;5077016;28;1914;-55
2021/01/25 10:52:27;;;;;;;;;;;;;;;20.84;39.49;98958.13;5076344;28;788;-51
2021/01/25 10:54:52;;;;;;;;;;;;;;;20.78;39.63;98954.00;5076466;28;795;-49
2021/01/25 10:57:18;;;;;;;;;;;;;;;20.90;39.32;98961.50;5076647;28;795;-54
2021/01/25 10:59:44;;;;;;;;;;;;;;;20.82;39.65;98948.59;5076113;28;1005;-56
2021/01/25 11:02:09;;;;;;;;;;;;;;;20.80;39.76;98943.44;5076383;28;800;-58
2021/01/25 11:04:35;;;;;;;;;;;;;;;20.91;39.37;98938.22;5076747;28;794;-50
2021/01/25 11:07:00;;;;;;;;;;;;;;;20.84;39.48;98947.06;5076588;28;804;-57
2021/01/25 11:09:26;;;;;;;;;;;;;;;20.85;39.34;98959.75;5076197;28;1064;-56
2021/01/25 11:11:51;;;;;;;;;;;;;;;20.53;40.18;98953.16;5076059;28;1910;-56
2021/01/25 11:14:17;;;;;;;;;;;;;;;20.63;40.09;98954.66;5060419;28;1013;-56
2021/01/25 11:16:42;;;;;;;;;;;;;;;20.71;39.88;98951.00;5056145;28;740;-53
2021/01/25 11:19:08;;;;;;;;;;;;;;;20.58;40.13;98944.66;5056270;28;843;-59
2021/01/25 11:21:34;;;;;;;;;;;;;;;20.33;40.75;98946.59;5056353;28;771;-57
2021/01/25 11:23:59;;;;;;;;;;;;;;;20.20;40.99;98972.56;5056105;28;882;-53
2021/01/25 11:26:27;;;;;;;;;;;;;;;20.45;40.74;98957.63;5056352;28;838;-56
2021/01/25 11:28:52;;;;;;;;;;;;;;;20.63;40.31;98976.75;5056607;28;962;-57
2021/01/25 11:31:18;;;;;;;;;;;;;;;20.76;39.87;98994.97;5055761;28;1917;-54
2021/01/25 11:33:43;;;;;;;;;;;;;;;20.68;40.13;99023.50;5056028;28;823;-53
2021/01/25 11:36:09;;;;;;;;;;;;;;;20.70;39.94;99043.31;5056273;28;820;-58
2021/01/25 11:38:35;;;;;;;;;;;;;;;20.78;39.92;99066.44;5055772;28;784;-58
2021/01/25 11:41:01;;;;;;;;;;;;;;;20.76;39.94;99066.81;5056690;28;780;-51
2021/01/25 11:43:27;;;;;;;;;;;;;;;20.82;40.01;99093.03;5055612;28;1001;-53
2021/01/25 11:45:52;;;;;;;;;;;;;;;20.83;39.68;99111.22;5055583;28;823;-56
2021/01/25 11:48:18;;;;;;;;;;;;;;;20.74;40.20;99115.25;5056041;28;796;-56
2021/01/25 11:50:44;;;;;;;;;;;;;;;20.84;39.78;99132.16;5056019;28;1921;-58
2021/01/25 11:53:09;;;;;;;;;;;;;;;20.91;39.53;99155.69;5055854;28;808;-58
2021/01/25 11:55:35;;;;;;;;;;;;;;;20.94;39.42;99163.28;5055698;28;855;-51
2021/01/25 11:58:00;;;;;;;;;;;;;;;20.80;39.93;99183.75;5055928;28;966;-59
2021/01/25 12:00:26;;;;;;;;;;;;;;;20.92;39.45;99195.97;5055177;28;756;-59
2021/01/25 12:02:51;;;;;;;;;;;;;;;20.84;39.56;99198.47;5056560;28;820;-54
2021/01/25 12:05:17;;;;;;;;;;;;;;;20.85;39.76;99213.91;5059821;28;784;-53
2021/01/25 12:07:42;;;;;;;;;;;;;;;20.87;39.57;99240.38;5061485;28;1127;-50
2021/01/25 12:10:08;;;;;;;;;;;;;;;20.93;39.46;99242.59;5079547;28;1918;-50
2021/01/25 12:12:33;;;;;;;;;;;;;;;21.00;39.26;99251.16;5056091;28;1104;-55
2021/01/25 12:14:59;;;;;;;;;;;;;;;20.99;39.34;99245.97;5039358;28;788;-52
2021/01/25 12:17:24;;;;;;;;;;;;;;;21.00;39.29;99250.34;5039835;28;803;-54
2021/01/25 12:19:50;;;;;;;;;;;;;;;20.99;39.12;99251.50;5039638;28;761;-53
2021/01/25 12:22:15;;;;;;;;;;;;;;;20.84;39.54;99270.28;5039084;28;740;-55
2021/01/25 12:24:41;;;;;;;;;;;;;;;20.85;39.35;99285.72;5039777;28;812;-51
2021/01/25 12:27:07;;;;;;;;;;;;;;;20.69;39.75;99293.00;5039566;28;787;-59
2021/01/25 12:29:33;;;;;;;;;;;;;;;20.88;39.30;99294.50;5038907;28;959;-57
2021/01/25 12:31:58;;;;;;;;;;;;;;;20.94;39.14;99304.19;5039226;28;1910;-60
2021/01/25 12:34:26;;;;;;;;;;;;;;;20.98;39.19;99302.38;5038564;28;812;-59
2021/01/25 12:36:52;;;;;;;;;;;;;;;20.99;38.90;99306.75;5038395;28;744;-55
2021/01/25 12:39:17;;;;;;;;;;;;;;;20.95;39.27;99312.13;5039516;28;874;-60
2021/01/25 12:41:43;;;;;;;;;;;;;;;21.06;38.88;99314.50;5037992;28;847;-59
2021/01/25 12:44:08;;;;;;;;;;;;;;;21.13;38.81;99307.25;5038427;28;1006;-58
2021/01/25 12:46:36;;;;;;;;;;;;;;;21.11;38.63;99309.56;5039131;28;745;-58
2021/01/25 12:49:03;;;;;;;;;;;;;;;21.01;38.75;99321.84;5039136;28;848;-58
2021/01/25 12:51:28;;;;;;;;;;;;;;;21.04;38.74;99328.63;5038521;28;1967;-59
2021/01/25 12:53:54;;;;;;;;;;;;;;;21.14;38.51;99341.22;5038215;28;913;-58
2021/01/25 12:56:19;;;;;;;;;;;;;;;21.18;38.53;99348.53;5037551;28;903;-59
2021/01/25 12:58:44;;;;;;;;;;;;;;;21.13;38.37;99357.00;5038230;28;1022;-49